Time;durP1;ratioP1;P1;durP2;ratioP2;P2;SDS_P1;SDS_P2;PMS_P1;PMS_P2;Temp;Humidity;BMP_temperature;BMP_pressure;BME280_temperature;BME280_humidity;BME280_pressure;Samples;Min_cycle;Max_cycle;Signal;HPM_P1;HPM_P2
2023/07/17 00:03:01;;;;;;;5.32;2.50;;;;;;;19.57;62.61;100531.63;10368560;28;96650;-90
2023/07/17 00:08:07;;;;;;;4.00;2.40;;;;;;;19.56;62.93;100528.13;10387105;28;96560;-90
2023/07/17 00:13:10;;;;;;;5.07;2.90;;;;;;;19.60;62.65;100518.91;10386859;28;96597;-90
2023/07/17 00:18:15;;;;;;;4.53;3.00;;;;;;;19.41;63.54;100515.88;10349096;28;97049;-89
2023/07/17 00:23:18;;;;;;;6.15;2.88;;;;;;;19.77;62.73;100515.03;10342466;28;97029;-90
2023/07/17 00:28:22;;;;;;;6.38;3.10;;;;;;;19.53;63.19;100509.66;10343723;28;96706;-91
2023/07/17 00:33:27;;;;;;;4.38;2.63;;;;;;;19.37;63.91;100510.84;10343400;28;97129;-90
2023/07/17 00:38:30;;;;;;;4.63;3.03;;;;;;;19.26;64.24;100506.25;10341020;28;96729;-90
2023/07/17 00:43:33;;;;;;;5.75;3.13;;;;;;;19.55;63.63;100501.53;10342673;28;96601;-91
2023/07/17 00:48:39;;;;;;;5.00;2.85;;;;;;;19.42;63.66;100514.06;10343113;28;97572;-90
2023/07/17 00:53:46;;;;;;;4.88;2.70;;;;;;;19.19;64.61;100502.31;10348915;28;96571;-91
2023/07/17 00:58:50;;;;;;;4.80;2.92;;;;;;;19.15;64.72;100501.69;10382918;28;96785;-90
2023/07/17 01:03:59;;;;;;;4.38;2.85;;;;;;;19.21;64.67;100508.41;10381101;28;96666;-90
2023/07/17 01:09:04;;;;;;;7.00;2.60;;;;;;;18.96;65.05;100485.28;10346452;28;96760;-90
2023/07/17 01:14:16;;;;;;;4.82;2.85;;;;;;;19.04;65.16;100487.41;10340347;28;96635;-90
2023/07/17 01:19:25;;;;;;;6.32;3.40;;;;;;;19.12;64.65;100485.91;10340701;28;96790;-90
2023/07/17 01:24:30;;;;;;;4.68;3.13;;;;;;;18.92;65.22;100478.44;10322725;22;96916;-90
2023/07/17 01:29:33;;;;;;;;;;;;;;;18.85;66.16;100481.66;10262508;28;96662;-90
2023/07/17 01:34:36;;;;;;;5.28;3.13;;;;;;;18.94;65.08;100486.31;10260325;28;96949;-90
2023/07/17 01:39:41;;;;;;;4.85;2.70;;;;;;;19.00;65.38;100477.91;10267473;28;97367;-91
2023/07/17 01:44:46;;;;;;;4.47;3.28;;;;;;;19.16;64.64;100474.03;10300185;28;96658;-90
2023/07/17 01:49:50;;;;;;;6.90;3.40;;;;;;;19.27;64.29;100481.28;10300341;28;96832;-91
2023/07/17 01:54:58;;;;;;;5.22;3.15;;;;;;;18.76;65.49;100474.28;10281920;28;97592;-91
2023/07/17 02:00:02;;;;;;;4.97;3.00;;;;;;;18.55;66.37;100481.09;10292994;28;96789;-90
2023/07/17 02:05:07;;;;;;;6.28;3.17;;;;;;;18.51;66.63;100477.78;10298138;28;97429;-91
2023/07/17 02:10:15;;;;;;;4.90;2.53;;;;;;;18.69;65.81;100479.22;10297626;28;97505;-89
2023/07/17 02:15:20;;;;;;;6.13;3.55;;;;;;;18.69;65.61;100465.88;10297259;28;97792;-90
2023/07/17 02:20:25;;;;;;;4.78;2.83;;;;;;;18.57;65.99;100465.88;10296795;28;96702;-90
2023/07/17 02:25:32;;;;;;;5.80;3.20;;;;;;;18.65;65.51;100460.84;10275786;28;96796;-90
2023/07/17 02:30:36;;;;;;;5.65;3.33;;;;;;;18.55;65.94;100463.31;10264525;28;96594;-90
2023/07/17 02:35:41;;;;;;;5.35;3.20;;;;;;;18.52;65.75;100457.34;10294802;28;96955;-90
2023/07/17 02:40:48;;;;;;;5.95;3.50;;;;;;;18.59;65.64;100459.44;10296694;28;97714;-90
2023/07/17 02:45:53;;;;;;;4.30;3.17;;;;;;;18.37;66.35;100453.88;10298973;28;96677;-90
2023/07/17 02:50:58;;;;;;;6.15;3.35;;;;;;;18.59;65.84;100447.97;10265917;28;96811;-93
2023/07/17 02:56:05;;;;;;;5.45;3.53;;;;;;;18.71;65.75;100444.44;10227556;28;96873;-92
2023/07/17 03:01:10;;;;;;;6.10;3.55;;;;;;;18.66;65.67;100452.75;10216176;28;96743;-92
2023/07/17 03:06:16;;;;;;;5.20;3.28;;;;;;;18.57;65.65;100456.06;10254801;28;97459;-90
2023/07/17 03:11:22;;;;;;;5.82;3.50;;;;;;;18.34;66.65;100455.88;10294236;28;97170;-88
2023/07/17 03:16:26;;;;;;;6.38;3.20;;;;;;;18.26;66.59;100447.56;10293576;28;96915;-89
2023/07/17 03:21:31;;;;;;;5.47;3.45;;;;;;;18.04;67.67;100449.00;10292522;28;97350;-90
2023/07/17 03:26:42;;;;;;;5.57;3.50;;;;;;;17.89;67.88;100447.38;10262524;28;96773;-87
2023/07/17 03:31:46;;;;;;;6.25;3.58;;;;;;;17.71;68.80;100447.75;10261888;28;97597;-92
2023/07/17 03:36:50;;;;;;;6.28;3.67;;;;;;;17.61;68.83;100446.63;10262968;28;96646;-93
2023/07/17 03:41:57;;;;;;;6.73;3.50;;;;;;;17.62;68.89;100445.69;10262541;28;97523;-89
2023/07/17 03:47:02;;;;;;;5.97;3.45;;;;;;;17.55;69.02;100453.22;10262441;28;96581;-87
2023/07/17 03:52:07;;;;;;;6.93;3.55;;;;;;;17.61;68.26;100438.66;10263299;28;97024;-91
2023/07/17 03:57:13;;;;;;;6.13;3.47;;;;;;;17.67;68.20;100443.59;10260692;28;97612;-88
2023/07/17 04:02:18;;;;;;;7.03;3.83;;;;;;;17.55;69.15;100447.03;10261020;28;96699;-90
2023/07/17 04:07:23;;;;;;;7.40;4.00;;;;;;;17.50;69.58;100439.34;10259761;28;96751;-92
2023/07/17 04:12:30;;;;;;;7.80;3.67;;;;;;;17.49;69.12;100445.63;10260590;28;97595;-88
2023/07/17 04:17:34;;;;;;;5.80;3.53;;;;;;;17.40;69.45;100458.66;10258585;28;96723;-88
2023/07/17 04:22:38;;;;;;;7.32;3.72;;;;;;;17.33;69.64;100460.00;10259512;28;96677;-89
2023/07/17 04:27:44;;;;;;;5.80;3.65;;;;;;;17.33;69.89;100470.63;10259556;28;96885;-88
2023/07/17 04:32:49;;;;;;;5.60;3.33;;;;;;;17.24;70.07;100464.09;10293034;28;96934;-90
2023/07/17 04:37:56;;;;;;;6.82;3.55;;;;;;;17.19;70.61;100466.16;10300037;28;96779;-90
2023/07/17 04:43:02;;;;;;;6.03;3.50;;;;;;;17.27;70.62;100473.66;10298596;28;97808;-90
2023/07/17 04:48:07;;;;;;;7.38;3.85;;;;;;;17.24;70.28;100474.75;10280405;28;96665;-90
2023/07/17 04:53:11;;;;;;;5.97;4.15;;;;;;;17.20;70.21;100470.56;10261213;28;97298;-90
2023/07/17 04:58:20;;;;;;;5.20;3.63;;;;;;;17.22;71.17;100470.44;10259356;28;97146;-92
2023/07/17 05:03:27;;;;;;;6.25;3.72;;;;;;;17.17;70.60;100469.88;10259203;28;96659;-93
2023/07/17 05:08:32;;;;;;;8.50;3.83;;;;;;;17.23;70.55;100475.66;10257495;28;96594;-91
2023/07/17 05:13:39;;;;;;;7.15;3.72;;;;;;;17.24;70.81;100477.41;10258190;28;96713;-90
2023/07/17 05:18:43;;;;;;;7.07;3.85;;;;;;;17.20;70.67;100478.53;10259305;28;96654;-93
2023/07/17 05:23:49;;;;;;;6.85;3.85;;;;;;;17.07;71.54;100474.91;10258612;28;96836;-92
2023/07/17 05:28:57;;;;;;;6.95;3.85;;;;;;;17.01;72.13;100477.97;10257805;28;96998;-92
2023/07/17 05:34:01;;;;;;;5.25;3.63;;;;;;;16.92;72.41;100475.88;10257229;28;96562;-88
2023/07/17 05:39:05;;;;;;;6.73;3.93;;;;;;;16.84;73.31;100481.66;10257758;28;96851;-91
2023/07/17 05:44:12;;;;;;;7.13;3.55;;;;;;;16.75;73.98;100481.38;10258173;28;96571;-90
2023/07/17 05:49:15;;;;;;;7.35;3.47;;;;;;;16.76;74.66;100480.41;10256945;28;96714;-92
2023/07/17 05:54:18;;;;;;;7.90;4.00;;;;;;;16.85;73.09;100477.22;10245754;28;96621;-92
2023/07/17 05:59:23;;;;;;;7.25;3.55;;;;;;;16.99;73.58;100482.53;10256524;28;97083;-91
2023/07/17 06:04:26;;;;;;;6.72;4.28;;;;;;;16.98;73.96;100486.16;10256446;28;97288;-90
2023/07/17 06:09:34;;;;;;;7.03;3.63;;;;;;;17.10;73.28;100484.53;10256761;28;97125;-91
2023/07/17 06:14:39;;;;;;;6.18;3.28;;;;;;;17.35;71.98;100487.31;10256302;28;96837;-91
2023/07/17 06:19:42;;;;;;;;;;;;;;;17.51;71.62;100488.97;10256220;28;96985;-89
2023/07/17 06:24:45;;;;;;;6.20;3.67;;;;;;;17.79;69.67;100498.66;10254784;28;96768;-94
2023/07/17 06:29:50;;;;;;;5.93;3.25;;;;;;;18.02;68.25;100490.88;10271704;28;97188;-93
2023/07/17 06:34:53;;;;;;;;;;;;;;;18.19;66.40;100492.44;10296905;28;96706;-90
2023/07/17 06:39:56;;;;;;;5.30;3.65;;;;;;;18.45;66.09;100490.66;10296479;28;96684;-91
2023/07/17 06:45:01;;;;;;;4.95;2.97;;;;;;;18.61;65.21;100494.03;10295550;28;97876;-90
2023/07/17 06:50:05;;;;;;;6.03;3.50;;;;;;;18.79;64.34;100495.41;10295240;28;96682;-89
2023/07/17 06:55:09;;;;;;;;;;;;;;;18.96;63.57;100497.75;10287820;28;96847;-88
2023/07/17 07:00:15;;;;;;;7.07;3.40;;;;;;;19.20;63.21;100490.69;10255068;28;96855;-90
2023/07/17 07:05:19;;;;;;;5.25;3.10;;;;;;;19.42;62.00;100495.38;10260106;28;96763;-87
2023/07/17 07:10:22;;;;;;;5.10;3.28;;;;;;;19.69;61.31;100490.69;10262966;28;96611;-88
2023/07/17 07:15:27;;;;;;;6.95;3.42;;;;;;;19.84;59.99;100493.09;10262755;28;96635;-91
2023/07/17 07:20:31;;;;;;;5.72;3.13;;;;;;;20.11;58.75;100499.06;10262557;28;96594;-92
2023/07/17 07:25:34;;;;;;;5.82;3.10;;;;;;;20.28;58.09;100490.63;10262524;28;97194;-90
2023/07/17 07:30:39;;;;;;;6.85;4.13;;;;;;;20.47;57.03;100489.25;10262173;28;96807;-93
2023/07/17 07:35:46;;;;;;;6.93;3.75;;;;;;;20.66;56.85;100485.06;10262401;28;96900;-89
2023/07/17 07:40:49;;;;;;;5.22;3.45;;;;;;;20.93;55.79;100493.59;10220083;28;96638;-88
2023/07/17 07:45:54;;;;;;;5.97;2.95;;;;;;;21.22;55.57;100481.50;10219949;28;97101;-88
2023/07/17 07:51:15;;;;;;;3.92;2.78;;;;;;;21.43;54.90;100495.81;10215466;28;96713;-91
2023/07/17 07:56:19;;;;;;;4.07;2.73;;;;;;;21.65;53.70;100497.63;10250428;28;97458;-90
2023/07/17 08:01:24;;;;;;;6.63;3.30;;;;;;;21.91;52.96;100496.34;10261710;28;96652;-90
2023/07/17 08:06:27;;;;;;;4.55;2.88;;;;;;;22.04;52.02;100494.38;10261562;28;97196;-86
2023/07/17 08:11:31;;;;;;;5.00;2.90;;;;;;;22.29;50.74;100477.97;10275648;28;96593;-89
2023/07/17 08:16:35;;;;;;;4.53;3.10;;;;;;;22.38;50.60;100487.06;10302003;28;97747;-87
2023/07/17 08:21:40;;;;;;;5.70;2.95;;;;;;;22.64;50.05;100488.38;10301203;28;97315;-88
2023/07/17 08:26:44;;;;;;;6.85;3.10;;;;;;;22.80;49.47;100488.75;10273222;28;96856;-89
2023/07/17 08:31:49;;;;;;;5.30;3.40;;;;;;;22.91;49.04;100493.22;10259657;28;96716;-87
2023/07/17 08:36:52;;;;;;;4.80;3.00;;;;;;;23.03;49.22;100486.78;10260630;28;97465;-89
2023/07/17 08:41:56;;;;;;;6.53;2.83;;;;;;;23.26;49.00;100491.84;10260360;28;96701;-87
2023/07/17 08:47:03;;;;;;;4.73;3.33;;;;;;;23.24;48.73;100483.06;10286429;28;97292;-90
2023/07/17 08:52:10;;;;;;;4.75;2.90;;;;;;;23.51;48.98;100477.09;10300096;28;97212;-89
2023/07/17 08:57:14;;;;;;;5.05;2.80;;;;;;;23.63;48.89;100484.09;10259813;28;96881;-89
2023/07/17 09:02:20;;;;;;;5.10;2.83;;;;;;;23.70;48.77;100469.94;10259536;28;96721;-89
2023/07/17 09:07:23;;;;;;;4.80;3.20;;;;;;;23.99;48.46;100467.31;10259458;28;96561;-90
2023/07/17 09:12:27;;;;;;;5.83;3.43;;;;;;;23.89;48.35;100457.53;10258941;28;97262;-89
2023/07/17 09:17:34;;;;;;;4.77;3.10;;;;;;;24.17;47.71;100451.31;10258702;28;97166;-92
2023/07/17 09:22:38;;;;;;;5.05;3.25;;;;;;;24.25;48.10;100454.13;10257353;28;98036;-89
2023/07/17 09:27:44;;;;;;;5.40;2.70;;;;;;;24.33;47.58;100451.59;10257987;28;96807;-89
2023/07/17 09:32:50;;;;;;;3.92;2.65;;;;;;;24.43;47.34;100450.59;10257906;28;96830;-90
2023/07/17 09:37:55;;;;;;;4.38;3.05;;;;;;;24.53;47.32;100447.91;10258192;28;96860;-88
2023/07/17 09:42:59;;;;;;;5.38;3.15;;;;;;;24.78;47.02;100433.81;10257818;28;97008;-87
2023/07/17 09:48:05;;;;;;;7.97;3.40;;;;;;;24.81;46.34;100434.38;10257914;28;97257;-89
2023/07/17 09:53:10;;;;;;;5.15;3.13;;;;;;;25.10;46.54;100438.84;10256733;28;98666;-90
2023/07/17 09:58:16;;;;;;;5.50;3.20;;;;;;;25.40;46.32;100415.13;10257599;28;97239;-87
2023/07/17 10:03:24;;;;;;;4.40;2.97;;;;;;;25.66;46.10;100416.09;10256735;28;97545;-91
2023/07/17 10:08:29;;;;;;;5.72;3.53;;;;;;;25.53;45.55;100412.94;10256524;28;96805;-88
2023/07/17 10:13:33;;;;;;;4.45;3.00;;;;;;;25.82;45.37;100413.59;10256407;28;97982;-87
2023/07/17 10:18:47;;;;;;;5.38;3.35;;;;;;;25.85;44.66;100390.88;10256371;28;96798;-90
2023/07/17 10:23:52;;;;;;;4.72;3.15;;;;;;;26.04;44.76;100395.28;10256185;28;96829;-88
2023/07/17 10:28:57;;;;;;;4.43;3.20;;;;;;;26.25;43.85;100396.59;10281684;28;96875;-90
2023/07/17 10:34:05;;;;;;;5.35;3.38;;;;;;;26.35;43.88;100391.97;10297475;28;96705;-89
2023/07/17 10:39:09;;;;;;;4.30;3.17;;;;;;;26.46;43.80;100380.94;10302204;28;96710;-89
2023/07/17 10:44:19;;;;;;;4.45;3.17;;;;;;;26.65;43.23;100375.34;10302384;28;98429;-91
2023/07/17 10:49:24;;;;;;;5.78;2.97;;;;;;;26.71;43.33;100372.00;10304720;28;96894;-85
2023/07/17 10:54:28;;;;;;;4.78;3.63;;;;;;;26.71;42.12;100372.00;10303473;28;97843;-88
2023/07/17 10:59:32;;;;;;;4.20;3.10;;;;;;;26.94;42.37;100370.41;10269970;28;97922;-89
2023/07/17 11:05:01;;;;;;;5.35;3.20;;;;;;;27.25;42.16;100372.59;10254874;28;96585;-88
2023/07/17 11:10:11;;;;;;;6.47;4.05;;;;;;;27.51;41.92;100376.06;10261879;28;96919;-89
2023/07/17 11:15:16;;;;;;;4.38;3.38;;;;;;;27.61;41.37;100366.78;10260635;28;96834;-83
2023/07/17 11:20:21;;;;;;;4.45;3.28;;;;;;;27.70;41.08;100363.09;10261584;28;97094;-90
2023/07/17 11:25:26;;;;;;;5.38;3.42;;;;;;;27.80;40.90;100365.66;10260146;28;98134;-90
2023/07/17 11:30:32;;;;;;;4.55;2.88;;;;;;;28.08;40.75;100354.31;10261077;28;97288;-85
2023/07/17 11:35:55;;;;;;;5.68;3.72;;;;;;;28.25;40.59;100347.06;10261526;28;97611;-91
2023/07/17 11:41:01;;;;;;;4.28;2.80;;;;;;;28.50;40.15;100342.47;10261178;28;97254;-90
2023/07/17 11:46:08;;;;;;;4.03;2.92;;;;;;;28.51;39.70;100326.06;10259737;28;97330;-89
2023/07/17 11:51:12;;;;;;;4.50;3.25;;;;;;;28.53;39.79;100332.16;10260063;28;96670;-85
2023/07/17 11:56:19;;;;;;;4.70;2.95;;;;;;;29.03;39.77;100318.25;10234260;28;97600;-82
2023/07/17 12:01:22;;;;;;;3.83;2.55;;;;;;;28.99;39.16;100314.22;10260544;28;96923;-90
2023/07/17 12:06:27;;;;;;;5.15;2.92;;;;;;;29.38;39.71;100314.16;10259638;28;96628;-85
2023/07/17 12:11:30;;;;;;;4.90;2.97;;;;;;;29.69;39.42;100302.28;10259080;28;97316;-88
2023/07/17 12:16:33;;;;;;;5.00;3.03;;;;;;;29.61;38.28;100293.34;10258737;28;96639;-88
2023/07/17 12:21:39;;;;;;;3.03;2.50;;;;;;;29.68;38.80;100295.16;10258703;28;96750;-86
2023/07/17 12:26:44;;;;;;;3.90;2.97;;;;;;;29.92;37.83;100288.66;10273485;28;96867;-83
2023/07/17 12:31:48;;;;;;;3.92;2.83;;;;;;;30.30;38.09;100286.81;10298205;28;97416;-82
2023/07/17 12:36:53;;;;;;;5.15;2.95;;;;;;;30.63;38.38;100274.56;10297616;28;96656;-84
2023/07/17 12:41:57;;;;;;;4.18;3.25;;;;;;;30.33;37.36;100272.84;10297221;28;96782;-87
2023/07/17 12:47:01;;;;;;;4.85;2.90;;;;;;;30.34;36.79;100260.94;10296764;28;97393;-84
2023/07/17 12:52:06;;;;;;;4.35;3.00;;;;;;;30.57;36.86;100262.56;10297365;28;96538;-83
2023/07/17 12:57:09;;;;;;;5.22;3.20;;;;;;;30.98;35.68;100258.31;10277018;28;96788;-84
2023/07/17 13:02:18;;;;;;;3.58;2.85;;;;;;;31.45;36.03;100255.09;10255769;28;96711;-82
2023/07/17 13:07:23;;;;;;;4.68;2.90;;;;;;;31.47;35.64;100247.56;10256775;28;96970;-83
2023/07/17 13:12:27;;;;;;;3.97;2.67;;;;;;;32.04;34.88;100231.97;10256279;28;96605;-82
2023/07/17 13:17:48;;;;;;;3.67;2.60;;;;;;;32.11;35.73;100229.28;10256770;28;97492;-83
2023/07/17 13:22:53;;;;;;;4.47;3.00;;;;;;;32.17;35.19;100218.44;10256295;28;96920;-82
2023/07/17 13:27:56;;;;;;;3.22;2.47;;;;;;;32.29;35.11;100203.19;10255487;28;96867;-82
2023/07/17 13:33:00;;;;;;;4.18;2.70;;;;;;;32.38;34.53;100199.31;10256477;28;96664;-82
2023/07/17 13:38:04;;;;;;;3.53;2.80;;;;;;;32.67;34.03;100190.03;10254456;28;98445;-82
2023/07/17 13:43:08;;;;;;;3.75;2.75;;;;;;;32.91;34.01;100186.78;10255016;28;97902;-82
2023/07/17 13:48:11;;;;;;;5.78;2.70;;;;;;;32.93;34.24;100171.03;10255071;28;96598;-82
2023/07/17 13:53:16;;;;;;;4.32;2.53;;;;;;;33.08;32.89;100170.84;10262718;22;97392;-82
2023/07/17 13:58:21;;;;;;;3.33;2.40;;;;;;;33.26;32.43;100168.38;10265445;28;97433;-82
2023/07/17 14:03:26;;;;;;;3.50;2.40;;;;;;;33.26;31.63;100171.09;10254553;28;96722;-83
2023/07/17 14:08:31;;;;;;;3.17;2.67;;;;;;;33.57;32.08;100165.91;10255030;28;96836;-82
2023/07/17 14:13:34;;;;;;;3.78;2.70;;;;;;;33.75;31.83;100160.63;10254589;28;96959;-82
2023/07/17 14:18:38;;;;;;;3.95;2.47;;;;;;;33.86;32.17;100156.41;10254077;28;96668;-82
2023/07/17 14:23:42;;;;;;;3.10;2.40;;;;;;;33.86;31.94;100153.69;10253693;28;97245;-82
2023/07/17 14:28:47;;;;;;;3.53;2.50;;;;;;;34.18;32.10;100158.28;10252726;28;96606;-82
2023/07/17 14:33:50;;;;;;;3.35;2.50;;;;;;;34.21;32.13;100146.91;10253482;28;97179;-82
2023/07/17 14:38:55;;;;;;;3.90;2.72;;;;;;;34.26;32.04;100149.81;10253927;28;97763;-84
2023/07/17 14:44:15;;;;;;;3.45;2.35;;;;;;;34.36;31.26;100142.84;10277969;28;97334;-85
2023/07/17 14:49:19;;;;;;;3.80;2.55;;;;;;;34.50;31.92;100136.31;10294191;28;97008;-82
2023/07/17 14:54:23;;;;;;;3.15;2.40;;;;;;;34.56;31.48;100118.16;10267650;28;96825;-82
2023/07/17 14:59:26;;;;;;;3.45;2.55;;;;;;;34.45;30.78;100124.34;10237438;28;96702;-84
2023/07/17 15:04:48;;;;;;;4.25;2.85;;;;;;;34.53;30.59;100111.25;10247725;28;97585;-89
2023/07/17 15:09:52;;;;;;;3.63;2.53;;;;;;;34.48;30.47;100099.31;10253324;28;96662;-82
2023/07/17 15:14:56;;;;;;;3.30;2.60;;;;;;;34.40;30.14;100094.06;10253309;28;97833;-90
2023/07/17 15:19:59;;;;;;;4.47;2.95;;;;;;;34.22;30.46;100102.97;10251874;28;97150;-87
2023/07/17 15:25:04;;;;;;;5.32;3.03;;;;;;;34.09;31.44;100104.91;10256005;28;96702;-89
2023/07/17 15:30:09;;;;;;;5.25;3.75;;;;;;;33.94;31.63;100096.13;10259718;28;97630;-87
2023/07/17 15:35:13;;;;;;;5.80;3.70;;;;;;;33.74;32.48;100107.09;10287312;28;97420;-87
2023/07/17 15:40:18;;;;;;;5.68;3.60;;;;;;;33.48;33.41;100094.31;10300813;28;96640;-85
2023/07/17 15:45:23;;;;;;;5.05;3.72;;;;;;;33.28;33.71;100090.72;10300026;28;96724;-88
2023/07/17 15:50:26;;;;;;;5.20;3.92;;;;;;;33.19;34.23;100085.69;10299366;28;97022;-87
2023/07/17 15:55:31;;;;;;;4.90;3.75;;;;;;;32.82;34.47;100086.25;10296359;28;97015;-88
2023/07/17 16:00:52;;;;;;;5.90;3.72;;;;;;;32.62;34.93;100080.75;10253026;28;96687;-89
2023/07/17 16:05:56;;;;;;;5.75;3.80;;;;;;;32.30;35.54;100081.47;10259441;28;96918;-87
2023/07/17 16:11:01;;;;;;;5.15;3.60;;;;;;;32.17;35.30;100090.44;10257794;28;96807;-87
2023/07/17 16:16:06;;;;;;;5.93;3.70;;;;;;;31.99;35.67;100100.19;10258488;28;97001;-90
2023/07/17 16:21:09;;;;;;;6.28;3.90;;;;;;;31.84;36.59;100105.75;10258526;28;96716;-86
2023/07/17 16:26:14;;;;;;;5.32;3.70;;;;;;;31.60;36.67;100114.34;10258978;28;96948;-87
2023/07/17 16:31:21;;;;;;;5.18;3.50;;;;;;;31.46;36.73;100115.28;10258196;28;96699;-90
2023/07/17 16:36:32;;;;;;;5.55;3.88;;;;;;;31.29;36.32;100103.88;10257882;28;96698;-89
2023/07/17 16:41:39;;;;;;;5.80;3.25;;;;;;;31.20;36.75;100124.06;10272574;28;96820;-90
2023/07/17 16:46:42;;;;;;;5.55;3.63;;;;;;;31.03;36.30;100122.66;10298784;28;97900;-89
2023/07/17 16:51:45;;;;;;;5.68;3.05;;;;;;;30.91;36.71;100126.91;10297594;28;96716;-88
2023/07/17 16:56:50;;;;;;;;;;;;;;;30.82;36.47;100127.25;10297041;28;97627;-89
2023/07/17 17:01:53;;;;;;;5.28;3.42;;;;;;;30.67;36.63;100129.13;10256153;28;97566;-90
2023/07/17 17:06:56;;;;;;;4.85;3.45;;;;;;;30.63;36.20;100123.22;10256899;28;97202;-90
2023/07/17 17:12:19;;;;;;;5.13;3.58;;;;;;;30.48;36.70;100127.03;10250261;28;96655;-90
2023/07/17 17:17:23;;;;;;;5.68;3.53;;;;;;;30.27;36.77;100133.25;10285289;28;96679;-87
2023/07/17 17:22:26;;;;;;;5.35;3.55;;;;;;;30.20;36.67;100138.59;10296691;28;96771;-88
2023/07/17 17:27:30;;;;;;;;;;;;;;;30.11;36.60;100144.31;10297001;28;96818;-88
2023/07/17 17:32:34;;;;;;;4.13;3.13;;;;;;;30.00;35.63;100148.31;10296235;28;97798;-87
2023/07/17 17:37:37;;;;;;;5.85;3.28;;;;;;;30.11;36.06;100156.00;10296983;28;97128;-89
2023/07/17 17:42:42;;;;;;;4.88;3.17;;;;;;;30.00;35.14;100161.03;10296642;28;96775;-90
2023/07/17 17:47:45;;;;;;;5.15;2.95;;;;;;;29.86;35.40;100161.88;10295330;28;96594;-88
2023/07/17 17:52:50;;;;;;;4.45;3.15;;;;;;;29.73;35.17;100165.22;10213587;28;97873;-89
2023/07/17 17:58:12;;;;;;;5.03;3.25;;;;;;;29.44;35.47;100165.16;10220757;28;96751;-84
2023/07/17 18:03:15;;;;;;;5.38;3.22;;;;;;;29.31;35.88;100180.34;10255196;28;96764;-89
2023/07/17 18:08:18;;;;;;;;;;;;;;;28.96;36.99;100173.66;10284881;28;96723;-88
2023/07/17 18:13:23;;;;;;;4.13;2.83;;;;;;;28.92;37.57;100173.19;10295824;28;97304;-90
2023/07/17 18:18:26;;;;;;;4.28;3.47;;;;;;;28.80;37.49;100176.44;10295567;28;96748;-89
2023/07/17 18:23:29;;;;;;;4.90;3.38;;;;;;;28.58;37.79;100191.66;10294214;28;96789;-89
2023/07/17 18:28:34;;;;;;;4.03;3.03;;;;;;;28.54;38.29;100200.28;10296277;28;97774;-90
2023/07/17 18:33:37;;;;;;;5.18;3.17;;;;;;;28.39;38.65;100205.63;10295120;28;96564;-88
2023/07/17 18:38:41;;;;;;;5.60;3.40;;;;;;;28.38;38.46;100214.72;10294875;28;96737;-87
2023/07/17 18:43:51;;;;;;;5.22;3.08;;;;;;;28.21;38.73;100204.09;10292800;28;96710;-89
2023/07/17 18:48:55;;;;;;;6.13;3.28;;;;;;;28.22;39.03;100203.91;10294796;28;96636;-89
2023/07/17 18:54:00;;;;;;;5.07;3.60;;;;;;;28.12;39.22;100222.22;10293706;28;96951;-90
2023/07/17 18:59:16;;;;;;;4.70;3.45;;;;;;;28.13;39.57;100232.06;10265873;28;96682;-89
2023/07/17 19:04:19;;;;;;;4.63;3.67;;;;;;;28.07;39.20;100230.03;10260855;28;96727;-90
2023/07/17 19:09:25;;;;;;;4.95;3.45;;;;;;;28.08;39.52;100243.38;10260583;28;97031;-88
2023/07/17 19:14:29;;;;;;;6.00;3.80;;;;;;;28.04;39.31;100239.34;10260524;28;97884;-89
2023/07/17 19:19:33;;;;;;;4.47;2.95;;;;;;;28.08;39.44;100234.44;10260782;28;97923;-89
2023/07/17 19:24:36;;;;;;;4.32;3.03;;;;;;;28.06;39.60;100240.00;10259592;28;96718;-87
2023/07/17 19:29:41;;;;;;;5.90;3.38;;;;;;;28.08;39.55;100237.16;10259193;28;97512;-88
2023/07/17 19:34:44;;;;;;;5.47;2.97;;;;;;;27.90;40.85;100250.88;10298199;28;96800;-88
2023/07/17 19:39:47;;;;;;;4.93;2.97;;;;;;;27.68;40.71;100266.94;10300555;28;96673;-89
2023/07/17 19:44:53;;;;;;;4.22;2.88;;;;;;;27.46;40.17;100271.09;10300135;28;96704;-89
2023/07/17 19:49:59;;;;;;;4.85;3.08;;;;;;;27.25;40.02;100273.44;10299235;28;97160;-89
2023/07/17 19:55:03;;;;;;;5.68;3.03;;;;;;;27.06;40.08;100279.13;10298460;28;96891;-89
2023/07/17 20:00:12;;;;;;;4.00;2.60;;;;;;;26.83;39.12;100281.59;10218708;28;96585;-87
2023/07/17 20:05:16;;;;;;;4.75;2.75;;;;;;;26.72;39.36;100289.13;10232065;28;96652;-90
2023/07/17 20:10:21;;;;;;;4.28;2.78;;;;;;;26.64;39.53;100286.41;10258881;28;96760;-87
2023/07/17 20:15:28;;;;;;;4.35;2.42;;;;;;;26.44;39.25;100291.19;10258455;28;96598;-90
2023/07/17 20:20:49;;;;;;;5.57;3.00;;;;;;;26.41;39.70;100299.63;10252812;28;97480;-89
2023/07/17 20:25:54;;;;;;;5.18;2.58;;;;;;;26.34;39.85;100303.94;10257229;28;97883;-89
2023/07/17 20:31:01;;;;;;;3.72;2.40;;;;;;;26.31;39.99;100303.41;10257595;28;96798;-88
2023/07/17 20:36:06;;;;;;;4.70;2.67;;;;;;;26.18;40.15;100311.09;10257944;28;96832;-88
2023/07/17 20:41:28;;;;;;;5.38;3.05;;;;;;;26.07;41.02;100322.97;10252353;28;96642;-88
2023/07/17 20:46:34;;;;;;;4.13;2.63;;;;;;;25.82;42.23;100334.56;10257498;28;96678;-89
2023/07/17 20:51:56;;;;;;;3.70;2.57;;;;;;;25.58;42.88;100343.25;10250885;28;96954;-88
2023/07/17 20:57:17;;;;;;;4.40;2.90;;;;;;;25.51;43.04;100355.63;10249851;28;97606;-89
2023/07/17 21:02:41;;;;;;;4.90;2.85;;;;;;;25.46;43.29;100359.78;10257697;28;96669;-89
2023/07/17 21:07:45;;;;;;;4.28;2.72;;;;;;;25.46;43.69;100373.25;10257393;28;96948;-89
2023/07/17 21:12:50;;;;;;;3.67;2.58;;;;;;;25.38;44.12;100376.72;10257424;28;97570;-88
2023/07/17 21:17:57;;;;;;;5.45;2.80;;;;;;;25.15;44.41;100386.22;10256730;28;96860;-89
2023/07/17 21:23:01;;;;;;;4.75;3.10;;;;;;;24.93;44.77;100394.63;10256102;28;96700;-89
2023/07/17 21:28:07;;;;;;;5.45;3.30;;;;;;;24.72;45.42;100394.88;10258217;28;97126;-88
2023/07/17 21:33:14;;;;;;;5.65;2.85;;;;;;;24.58;45.96;100394.50;10258576;28;97491;-90
2023/07/17 21:38:18;;;;;;;5.28;2.58;;;;;;;24.62;45.81;100404.81;10256810;28;96678;-89
2023/07/17 21:43:22;;;;;;;4.68;3.08;;;;;;;24.58;45.80;100407.97;10255905;28;97634;-90
2023/07/17 21:48:29;;;;;;;6.10;2.83;;;;;;;24.41;46.43;100414.91;10257081;28;96962;-89
2023/07/17 21:53:33;;;;;;;3.97;2.42;;;;;;;24.39;46.43;100418.75;10258874;28;96941;-89
2023/07/17 21:58:38;;;;;;;5.55;3.15;;;;;;;24.20;47.17;100427.69;10258555;28;97233;-89
2023/07/17 22:03:44;;;;;;;5.35;2.95;;;;;;;24.09;47.38;100426.97;10264803;28;97578;-89
2023/07/17 22:09:06;;;;;;;3.90;2.63;;;;;;;23.77;47.96;100440.66;10292127;28;96863;-89
2023/07/17 22:14:11;;;;;;;3.97;2.65;;;;;;;23.76;47.92;100438.13;10299341;28;96583;-89
2023/07/17 22:19:18;;;;;;;5.05;2.83;;;;;;;23.60;48.63;100441.34;10298701;28;97162;-89
2023/07/17 22:24:39;;;;;;;5.27;3.23;;;;;;;23.45;48.91;100446.25;10294149;28;96813;-89
2023/07/17 22:29:44;;;;;;;4.18;2.92;;;;;;;23.51;48.88;100439.47;10297465;28;97221;-89
2023/07/17 22:34:52;;;;;;;4.68;3.10;;;;;;;23.25;49.38;100449.84;10297027;28;96816;-89
2023/07/17 22:39:57;;;;;;;4.85;2.90;;;;;;;23.09;50.05;100445.97;10270670;28;97308;-89
2023/07/17 22:45:01;;;;;;;5.75;3.28;;;;;;;23.19;49.92;100436.13;10258238;28;96758;-89
2023/07/17 22:50:09;;;;;;;;;;;;;;;22.95;50.49;100446.34;10256277;28;97294;-89
2023/07/17 22:55:15;;;;;;;4.00;2.83;;;;;;;23.04;50.03;100446.41;10255012;28;97723;-89
2023/07/17 23:00:20;;;;;;;4.07;2.70;;;;;;;22.88;50.53;100450.53;10254104;28;96649;-89
2023/07/17 23:05:28;;;;;;;4.95;3.03;;;;;;;22.56;51.50;100448.78;10254417;28;96704;-89
2023/07/17 23:10:33;;;;;;;4.72;3.00;;;;;;;22.19;52.32;100450.22;10254161;28;96833;-89
2023/07/17 23:15:38;;;;;;;;;;;;;;;22.47;52.46;100449.56;10255780;28;97695;-89
2023/07/17 23:20:45;;;;;;;4.63;3.05;;;;;;;22.17;51.91;100436.09;10256051;28;97823;-89
2023/07/17 23:25:49;;;;;;;5.43;2.70;;;;;;;22.20;52.16;100437.66;10254933;28;97568;-89
2023/07/17 23:30:55;;;;;;;5.25;2.80;;;;;;;22.01;52.60;100434.81;10257547;28;96768;-89